Time;durP1;ratioP1;P1;durP2;ratioP2;P2;SDS_P1;SDS_P2;PMS_P1;PMS_P2;Temp;Humidity;BMP_temperature;BMP_pressure;BME280_temperature;BME280_humidity;BME280_pressure;Samples;Min_cycle;Max_cycle;Signal;HPM_P1;HPM_P2
2023/10/29 00:00:43;;;;;;;2.20;1.90;;;;;;;10.83;100.00;100024.64;106390;1257;66583;-88
2023/10/29 00:03:11;;;;;;;7.70;2.10;;;;;;;10.83;100.00;100021.15;106303;1257;72651;-82
2023/10/29 00:05:38;;;;;;;4.80;1.80;;;;;;;10.83;100.00;100022.56;106259;1256;60505;-88
2023/10/29 00:08:08;;;;;;;3.00;1.90;;;;;;;10.84;100.00;100024.90;106407;1258;60281;-82
2023/10/29 00:10:36;;;;;;;5.00;2.00;;;;;;;10.86;100.00;100028.55;106341;1253;72613;-88
2023/10/29 00:13:04;;;;;;;4.90;1.90;;;;;;;10.88;100.00;100030.05;106192;1253;68945;-81
2023/10/29 00:15:32;;;;;;;2.30;1.80;;;;;;;10.96;100.00;100032.58;106295;1253;71766;-88
2023/10/29 00:18:00;;;;;;;4.00;2.10;;;;;;;10.99;100.00;100035.98;106544;1254;60644;-88
2023/10/29 00:20:28;;;;;;;3.80;1.80;;;;;;;10.99;100.00;100036.21;106445;1257;60410;-82
2023/10/29 00:22:56;;;;;;;3.50;1.80;;;;;;;11.03;100.00;100043.71;106105;1252;72780;-88
2023/10/29 00:25:24;;;;;;;4.50;1.90;;;;;;;11.03;100.00;100051.69;106177;1252;67127;-89
2023/10/29 00:27:51;;;;;;;6.00;2.20;;;;;;;11.04;100.00;100052.56;106414;1257;71391;-81
2023/10/29 00:30:19;;;;;;;3.40;2.20;;;;;;;11.04;100.00;100059.13;106358;1253;60495;-82
2023/10/29 00:32:46;;;;;;;4.20;2.30;;;;;;;11.02;100.00;100059.08;106529;1253;60962;-89
2023/10/29 00:35:15;;;;;;;3.50;1.80;;;;;;;10.98;100.00;100057.05;106199;1253;73875;-82
2023/10/29 00:37:43;;;;;;;4.00;1.90;;;;;;;10.96;100.00;100056.92;106517;1257;67272;-82
2023/10/29 00:40:11;;;;;;;2.50;1.60;;;;;;;10.97;100.00;100055.00;106358;1252;71529;-82
2023/10/29 00:42:39;;;;;;;2.80;1.50;;;;;;;10.95;100.00;100059.44;106443;1252;60513;-88
2023/10/29 00:45:07;;;;;;;2.90;2.10;;;;;;;10.94;100.00;100060.48;106414;1252;60547;-88
2023/10/29 00:47:35;;;;;;;2.50;1.60;;;;;;;10.91;100.00;100058.23;106602;1253;71513;-81
2023/10/29 00:50:03;;;;;;;1.90;1.60;;;;;;;10.91;100.00;100057.36;106264;1258;67566;-88
2023/10/29 00:52:32;;;;;;;2.50;1.70;;;;;;;10.87;100.00;100057.34;106511;1253;72440;-82
2023/10/29 00:54:59;;;;;;;2.60;1.80;;;;;;;10.83;100.00;100058.42;106391;1260;60421;-82
2023/10/29 00:57:27;;;;;;;3.00;1.60;;;;;;;10.82;100.00;100058.57;106586;1253;60419;-87
2023/10/29 00:59:54;;;;;;;2.20;1.50;;;;;;;10.79;100.00;100052.41;106564;1253;73892;-89
2023/10/29 01:02:22;;;;;;;3.50;2.20;;;;;;;10.77;100.00;100049.96;106267;1253;67469;-89
2023/10/29 01:04:50;;;;;;;2.70;1.90;;;;;;;10.73;100.00;100051.64;106497;1253;72669;-88
2023/10/29 01:07:17;;;;;;;2.40;1.20;;;;;;;10.69;100.00;100047.11;106559;1256;60404;-88
2023/10/29 01:09:46;;;;;;;2.00;1.50;;;;;;;10.68;100.00;100057.34;106637;1253;60531;-88
2023/10/29 01:12:18;;;;;;;3.00;1.50;;;;;;;10.67;100.00;100064.51;106386;1253;73834;-82
2023/10/29 01:14:46;;;;;;;3.10;2.00;;;;;;;10.61;100.00;100068.61;106186;1251;68301;-83
2023/10/29 01:17:14;;;;;;;2.60;1.50;;;;;;;10.53;100.00;100076.05;106621;1251;71594;-81
2023/10/29 01:19:42;;;;;;;4.10;1.80;;;;;;;10.49;100.00;100077.70;106477;1256;61478;-88
2023/10/29 01:22:10;;;;;;;3.10;1.90;;;;;;;10.45;100.00;100079.86;106593;1253;60438;-81
2023/10/29 01:24:39;;;;;;;4.10;2.00;;;;;;;10.38;100.00;100081.61;106510;1253;73833;-88
2023/10/29 01:27:07;;;;;;;4.70;2.30;;;;;;;10.33;100.00;100087.56;106469;1253;68728;-81
2023/10/29 01:29:36;;;;;;;3.00;2.00;;;;;;;10.30;100.00;100091.06;106355;1253;72620;-88
2023/10/29 01:32:04;;;;;;;3.70;1.80;;;;;;;10.30;100.00;100098.00;106480;1256;60486;-81
2023/10/29 01:34:32;;;;;;;4.00;1.90;;;;;;;10.28;100.00;100100.91;106395;1253;60451;-89
2023/10/29 01:36:59;;;;;;;2.80;1.60;;;;;;;10.29;100.00;100103.38;106350;1257;74296;-81
2023/10/29 01:39:27;;;;;;;3.40;2.00;;;;;;;10.28;100.00;100108.95;106357;1253;68326;-88
2023/10/29 01:41:56;;;;;;;3.00;1.80;;;;;;;10.27;100.00;100106.75;106395;1256;71048;-81
2023/10/29 01:44:23;;;;;;;4.50;2.40;;;;;;;10.28;100.00;100110.85;106319;1253;60498;-82
2023/10/29 01:46:51;;;;;;;4.90;2.20;;;;;;;10.28;100.00;100107.30;106452;1253;60516;-87
2023/10/29 01:49:19;;;;;;;2.40;1.80;;;;;;;10.29;100.00;100106.27;106648;1253;73861;-88
2023/10/29 01:51:46;;;;;;;2.40;1.60;;;;;;;10.28;100.00;100104.95;106428;1253;68508;-82
2023/10/29 01:54:14;;;;;;;3.10;2.00;;;;;;;10.24;100.00;100105.95;106286;1253;72629;-87
2023/10/29 01:56:42;;;;;;;2.40;1.50;;;;;;;10.21;100.00;100110.61;106439;1254;61636;-88
2023/10/29 01:59:13;;;;;;;3.40;2.10;;;;;;;10.19;100.00;100117.56;106402;1258;60451;-89
2023/10/29 02:01:41;;;;;;;2.60;1.60;;;;;;;10.14;100.00;100122.36;106327;1253;72823;-83
2023/10/29 02:04:11;;;;;;;2.30;1.40;;;;;;;10.12;100.00;100125.53;106294;1259;67955;-81
2023/10/29 02:06:39;;;;;;;2.60;1.60;;;;;;;10.10;100.00;100131.22;106585;1254;71748;-82
2023/10/29 02:09:10;;;;;;;4.30;1.40;;;;;;;10.07;100.00;100135.08;106328;1253;61700;-82
2023/10/29 02:11:38;;;;;;;2.50;1.40;;;;;;;10.06;100.00;100135.69;106100;1253;60467;-82
2023/10/29 02:14:06;;;;;;;2.30;1.80;;;;;;;9.99;100.00;100139.98;106359;1253;74292;-81
2023/10/29 02:16:34;;;;;;;1.80;1.50;;;;;;;9.91;100.00;100141.08;106470;1253;67222;-82
2023/10/29 02:19:03;;;;;;;3.60;2.30;;;;;;;9.83;100.00;100137.68;106392;1253;72641;-82
2023/10/29 02:21:31;;;;;;;1.80;1.30;;;;;;;9.76;100.00;100133.30;106157;1253;60403;-89
2023/10/29 02:24:01;;;;;;;3.70;1.70;;;;;;;9.69;100.00;100134.86;106405;1256;60959;-82
2023/10/29 02:26:29;;;;;;;2.90;1.60;;;;;;;9.60;100.00;100140.54;106195;1253;74395;-81
2023/10/29 02:28:56;;;;;;;3.50;2.20;;;;;;;9.50;100.00;100150.95;106634;1253;67195;-82
2023/10/29 02:31:24;;;;;;;4.10;2.10;;;;;;;9.42;100.00;100153.92;106351;1256;71312;-82
2023/10/29 02:33:52;;;;;;;4.60;2.40;;;;;;;9.36;100.00;100156.35;106265;1253;60498;-82
2023/10/29 02:36:19;;;;;;;9.20;3.40;;;;;;;9.29;100.00;100160.73;106392;1252;60614;-82
2023/10/29 02:38:47;;;;;;;19.90;8.00;;;;;;;9.22;100.00;100164.85;106400;1253;72672;-82
2023/10/29 02:41:14;;;;;;;26.50;8.20;;;;;;;9.14;100.00;100169.23;106362;1253;67270;-82
2023/10/29 02:43:42;;;;;;;13.80;5.80;;;;;;;9.06;100.00;100174.11;106427;1254;71711;-81
2023/10/29 02:46:13;;;;;;;10.20;3.80;;;;;;;9.02;100.00;100180.64;106197;1258;60463;-81
2023/10/29 02:48:40;;;;;;;10.80;4.40;;;;;;;8.98;100.00;100183.05;106397;1252;60528;-88
2023/10/29 02:51:12;;;;;;;14.00;4.70;;;;;;;8.93;100.00;100190.20;106326;1254;73847;-82
2023/10/29 02:53:39;;;;;;;16.90;4.60;;;;;;;8.88;100.00;100196.36;106013;1253;67391;-80
2023/10/29 02:56:07;;;;;;;11.00;4.20;;;;;;;8.85;100.00;100204.48;106370;1253;72668;-81
2023/10/29 02:58:35;;;;;;;7.30;3.40;;;;;;;8.83;100.00;100207.42;106302;1258;61645;-81
2023/10/29 03:01:06;;;;;;;9.00;3.90;;;;;;;8.80;100.00;100206.06;106093;1253;60468;-88
2023/10/29 03:03:35;;;;;;;8.60;4.10;;;;;;;8.80;100.00;100206.83;106323;1257;73811;-87
2023/10/29 03:06:04;;;;;;;11.00;3.80;;;;;;;8.81;100.00;100214.95;106302;1253;68530;-81
2023/10/29 03:08:33;;;;;;;7.10;3.30;;;;;;;8.85;100.00;100215.06;106060;1253;71846;-88
2023/10/29 03:11:02;;;;;;;6.60;2.90;;;;;;;8.90;100.00;100214.52;106556;1254;61500;-81
2023/10/29 03:13:31;;;;;;;6.60;2.90;;;;;;;8.96;100.00;100213.36;106241;1254;60429;-89
2023/10/29 03:15:59;;;;;;;8.00;3.00;;;;;;;9.02;100.00;100221.27;106381;1253;74357;-88
2023/10/29 03:18:29;;;;;;;7.90;3.30;;;;;;;9.08;100.00;100222.77;106200;1253;68847;-81
2023/10/29 03:20:57;;;;;;;7.10;3.50;;;;;;;9.16;100.00;100219.23;106262;1256;71263;-82
2023/10/29 03:23:25;;;;;;;14.00;5.10;;;;;;;9.25;100.00;100228.35;106239;1253;61782;-82
2023/10/29 03:25:55;;;;;;;19.50;6.80;;;;;;;9.35;100.00;100223.11;106268;1253;59984;-81
2023/10/29 03:28:23;;;;;;;16.10;6.40;;;;;;;9.41;100.00;100218.89;106131;1260;73797;-81
2023/10/29 03:30:51;;;;;;;15.90;5.00;;;;;;;9.50;100.00;100217.49;106206;1253;68715;-89
2023/10/29 03:33:18;;;;;;;21.90;7.10;;;;;;;9.54;100.00;100227.03;106253;1253;71665;-88
2023/10/29 03:35:46;;;;;;;26.10;7.40;;;;;;;9.56;100.00;100229.53;106308;1253;60394;-89
2023/10/29 03:38:14;;;;;;;12.30;5.10;;;;;;;9.60;100.00;100228.98;106375;1253;60511;-81
2023/10/29 03:40:41;;;;;;;8.70;4.00;;;;;;;9.60;100.00;100234.00;106115;1253;72588;-88
2023/10/29 03:43:09;;;;;;;8.40;3.20;;;;;;;9.60;100.00;100240.44;106313;1253;68710;-81
2023/10/29 03:45:36;;;;;;;4.50;2.40;;;;;;;9.63;100.00;100238.74;106254;1253;72610;-81
2023/10/29 03:48:04;;;;;;;4.40;2.40;;;;;;;9.64;100.00;100239.33;106421;1251;59290;-88
2023/10/29 03:50:32;;;;;;;6.20;2.70;;;;;;;9.67;100.00;100237.08;106336;1253;62189;-88
2023/10/29 03:52:59;;;;;;;2.90;2.00;;;;;;;9.72;100.00;100235.73;106297;1255;73974;-88
2023/10/29 03:55:27;;;;;;;4.40;2.50;;;;;;;9.78;100.00;100240.31;106207;1253;68401;-81
2023/10/29 03:57:55;;;;;;;4.40;2.00;;;;;;;9.82;100.00;100256.07;106322;1259;71456;-88
2023/10/29 04:00:22;;;;;;;5.40;2.40;;;;;;;9.92;100.00;100262.42;106537;1253;60424;-89
2023/10/29 04:02:51;;;;;;;5.00;2.10;;;;;;;10.01;100.00;100264.40;106368;1253;61086;-82
2023/10/29 04:05:19;;;;;;;3.50;2.20;;;;;;;10.09;100.00;100264.63;106229;1253;72740;-87
2023/10/29 04:07:46;;;;;;;5.00;2.00;;;;;;;10.21;100.00;100265.66;106269;1253;67242;-88
2023/10/29 04:10:14;;;;;;;4.30;2.20;;;;;;;10.29;100.00;100253.79;106235;1260;72687;-82
2023/10/29 04:12:43;;;;;;;4.10;2.20;;;;;;;10.35;100.00;100258.17;106259;1254;60453;-81
2023/10/29 04:15:11;;;;;;;4.30;2.30;;;;;;;10.39;100.00;100265.75;106445;1254;60507;-88
2023/10/29 04:17:39;;;;;;;3.20;2.00;;;;;;;10.42;100.00;100279.77;106281;1254;72718;-82
2023/10/29 04:20:08;;;;;;;4.50;2.40;;;;;;;10.46;100.00;100290.29;106310;1254;67285;-82
2023/10/29 04:22:36;;;;;;;4.20;2.00;;;;;;;10.49;100.00;100288.80;106412;1257;72705;-81
2023/10/29 04:25:05;;;;;;;4.20;2.00;;;;;;;10.53;100.00;100288.83;106263;1258;60501;-88
2023/10/29 04:27:33;;;;;;;3.70;2.00;;;;;;;10.56;100.00;100286.63;106259;1253;60338;-82
2023/10/29 04:30:00;;;;;;;2.70;1.90;;;;;;;10.62;100.00;100284.36;106299;1257;72909;-82
2023/10/29 04:32:28;;;;;;;4.00;2.20;;;;;;;10.67;100.00;100282.45;106393;1253;68854;-81
2023/10/29 04:34:56;;;;;;;3.50;1.70;;;;;;;10.70;100.00;100286.42;106283;1253;72651;-82
2023/10/29 04:37:23;;;;;;;4.40;2.30;;;;;;;10.71;100.00;100289.48;106316;1257;60540;-82
2023/10/29 04:39:51;;;;;;;3.90;1.80;;;;;;;10.70;100.00;100286.38;106327;1259;59315;-81
2023/10/29 04:42:18;;;;;;;3.80;2.20;;;;;;;10.70;100.00;100285.83;106334;1256;72815;-82
2023/10/29 04:44:46;;;;;;;4.10;1.90;;;;;;;10.66;100.00;100283.39;106332;1253;68251;-89
2023/10/29 04:47:15;;;;;;;3.20;2.30;;;;;;;10.63;100.00;100282.48;106341;1254;72944;-81
2023/10/29 04:49:43;;;;;;;4.30;2.00;;;;;;;10.58;100.00;100279.84;106372;1254;60537;-87
2023/10/29 04:52:11;;;;;;;2.90;1.70;;;;;;;10.52;100.00;100286.92;106275;1257;60342;-82
2023/10/29 04:54:38;;;;;;;5.00;2.80;;;;;;;10.47;100.00;100288.48;106358;1253;73933;-87
2023/10/29 04:57:07;;;;;;;10.60;4.10;;;;;;;10.46;100.00;100296.80;106423;1254;67481;-81
2023/10/29 04:59:36;;;;;;;6.40;3.60;;;;;;;10.46;100.00;100302.70;106361;1254;72472;-81
2023/10/29 05:02:04;;;;;;;8.30;3.90;;;;;;;10.42;100.00;100302.16;106380;1253;60492;-81
2023/10/29 05:04:32;;;;;;;6.10;3.60;;;;;;;10.45;100.00;100307.89;106247;1259;60329;-88
2023/10/29 05:07:00;;;;;;;3.90;2.20;;;;;;;10.40;100.00;100305.96;106316;1253;72569;-81
2023/10/29 05:09:27;;;;;;;3.40;1.80;;;;;;;10.38;100.00;100304.77;106270;1257;68363;-81
2023/10/29 05:11:55;;;;;;;3.50;1.80;;;;;;;10.44;100.00;100306.80;106304;1258;70421;-88
2023/10/29 05:14:23;;;;;;;3.70;2.10;;;;;;;10.45;100.00;100312.44;106160;1258;60503;-88
2023/10/29 05:16:52;;;;;;;3.50;2.10;;;;;;;10.45;100.00;100313.85;106396;1254;60422;-89
2023/10/29 05:19:20;;;;;;;6.40;2.60;;;;;;;10.49;100.00;100311.54;106289;1253;71829;-82
2023/10/29 05:21:48;;;;;;;5.70;2.40;;;;;;;10.54;100.00;100316.52;106349;1253;68406;-88
2023/10/29 05:24:16;;;;;;;6.30;2.40;;;;;;;10.60;100.00;100315.63;106280;1257;71106;-81
2023/10/29 05:26:44;;;;;;;5.40;2.30;;;;;;;10.68;100.00;100328.30;106052;1253;60927;-82
2023/10/29 05:29:12;;;;;;;3.90;2.50;;;;;;;10.72;100.00;100336.91;106442;1254;60498;-89
2023/10/29 05:31:39;;;;;;;8.50;2.40;;;;;;;10.72;100.00;100345.23;106305;1254;73924;-82
2023/10/29 05:34:07;;;;;;;3.40;2.20;;;;;;;10.82;100.00;100354.34;106154;1258;69279;-87
2023/10/29 05:36:35;;;;;;;6.70;2.30;;;;;;;10.91;100.00;100359.52;106290;1257;72923;-82
2023/10/29 05:39:05;;;;;;;3.80;2.50;;;;;;;11.02;100.00;100350.27;106197;1259;60654;-88
2023/10/29 05:41:32;;;;;;;3.30;1.70;;;;;;;11.09;100.00;100345.73;106196;1258;60502;-88
2023/10/29 05:44:00;;;;;;;4.20;2.10;;;;;;;11.15;100.00;100350.23;106432;1254;73864;-89
2023/10/29 05:46:28;;;;;;;6.80;1.90;;;;;;;11.22;100.00;100352.48;106402;1254;68624;-82
2023/10/29 05:48:56;;;;;;;2.90;2.00;;;;;;;11.30;100.00;100360.88;106420;1257;71375;-88
2023/10/29 05:51:23;;;;;;;3.80;1.90;;;;;;;11.42;100.00;100368.89;106343;1256;60362;-89
2023/10/29 05:53:51;;;;;;;3.50;2.30;;;;;;;11.52;100.00;100369.84;106410;1258;60412;-81
2023/10/29 05:56:19;;;;;;;4.00;2.10;;;;;;;11.63;100.00;100371.43;106455;1259;73838;-81
2023/10/29 05:58:47;;;;;;;3.60;2.10;;;;;;;11.74;100.00;100370.93;106462;1253;67206;-87
2023/10/29 06:01:15;;;;;;;4.10;2.10;;;;;;;11.85;100.00;100376.53;106303;1256;71713;-81
2023/10/29 06:03:43;;;;;;;3.00;1.80;;;;;;;11.95;100.00;100377.59;106195;1253;60418;-88
2023/10/29 06:06:11;;;;;;;4.60;2.10;;;;;;;12.09;100.00;100383.20;106180;1256;60810;-88
2023/10/29 06:08:39;;;;;;;4.30;1.90;;;;;;;12.21;100.00;100388.65;106167;1254;73856;-88
2023/10/29 06:11:06;;;;;;;4.20;1.80;;;;;;;12.34;100.00;100394.14;106139;1259;68533;-88
2023/10/29 06:13:34;;;;;;;3.40;1.80;;;;;;;12.54;100.00;100395.55;106420;1259;73078;-89
2023/10/29 06:16:06;;;;;;;3.00;1.60;;;;;;;12.70;100.00;100398.95;106260;1258;60452;-88
2023/10/29 06:18:35;;;;;;;2.80;1.90;;;;;;;12.85;100.00;100405.14;106230;1254;209077;-88
2023/10/29 06:21:03;;;;;;;3.90;1.70;;;;;;;13.03;100.00;100406.27;106228;1259;73872;-81
2023/10/29 06:23:31;;;;;;;3.80;1.90;;;;;;;13.22;100.00;100410.98;106051;1256;68315;-81
2023/10/29 06:25:59;;;;;;;4.10;2.00;;;;;;;13.36;100.00;100403.44;106343;1260;72683;-88
2023/10/29 06:28:26;;;;;;;3.00;1.70;;;;;;;13.50;100.00;100405.67;106185;1259;60486;-88
2023/10/29 06:30:54;;;;;;;2.70;1.90;;;;;;;13.60;100.00;100405.58;106309;1258;60513;-81
2023/10/29 06:33:21;;;;;;;3.20;1.90;;;;;;;13.68;100.00;100407.14;106100;1254;73915;-87
2023/10/29 06:35:49;;;;;;;2.30;1.80;;;;;;;13.73;100.00;100417.44;106136;1260;67161;-80
2023/10/29 06:38:17;;;;;;;3.00;1.70;;;;;;;13.76;100.00;100419.18;106234;1257;70133;-88
2023/10/29 06:40:44;;;;;;;4.60;2.10;;;;;;;13.78;100.00;100418.95;106155;1259;62249;-89
2023/10/29 06:43:12;;;;;;;4.00;2.10;;;;;;;13.79;100.00;100423.00;106093;1260;60431;-88
2023/10/29 06:45:40;;;;;;;3.10;1.70;;;;;;;13.80;100.00;100432.31;106081;1255;73909;-90
2023/10/29 06:48:07;;;;;;;3.30;1.60;;;;;;;13.87;100.00;100436.36;106214;1255;67132;-88
2023/10/29 06:50:36;;;;;;;2.40;1.80;;;;;;;13.98;100.00;100441.38;106148;1259;72689;-89
2023/10/29 06:53:05;;;;;;;4.50;2.10;;;;;;;14.03;100.00;100446.83;106124;1256;60616;-88
2023/10/29 06:55:35;;;;;;;3.50;2.00;;;;;;;14.12;100.00;100450.80;106193;1259;60350;-82
2023/10/29 06:58:04;;;;;;;4.40;2.10;;;;;;;14.21;100.00;100456.08;105964;1262;73824;-81
2023/10/29 07:00:31;;;;;;;2.30;1.40;;;;;;;14.26;100.00;100465.02;106075;1259;67084;-88
2023/10/29 07:02:59;;;;;;;3.50;1.90;;;;;;;14.28;100.00;100475.50;106119;1259;71760;-86
2023/10/29 07:05:27;;;;;;;5.10;2.30;;;;;;;14.39;100.00;100485.48;106026;1261;60428;-82
2023/10/29 07:07:55;;;;;;;3.30;1.80;;;;;;;14.45;100.00;100490.64;106391;1254;60290;-81
2023/10/29 07:10:23;;;;;;;4.30;2.00;;;;;;;14.44;100.00;100497.98;106361;1256;73962;-88
2023/10/29 07:12:53;;;;;;;3.20;2.00;;;;;;;14.48;100.00;100498.83;106286;1257;68427;-88
2023/10/29 07:15:20;;;;;;;3.70;2.30;;;;;;;14.54;100.00;100497.91;106496;1256;73623;-88
2023/10/29 07:17:48;;;;;;;3.10;1.90;;;;;;;14.59;100.00;100502.33;106298;1258;62167;-81
2023/10/29 07:20:16;;;;;;;5.00;2.40;;;;;;;14.60;100.00;100498.30;106277;1257;60432;-89
2023/10/29 07:22:43;;;;;;;5.50;2.40;;;;;;;14.62;100.00;100502.40;106339;1259;73791;-88
2023/10/29 07:25:11;;;;;;;6.20;2.40;;;;;;;14.67;100.00;100508.27;106348;1256;68688;-81
2023/10/29 07:27:39;;;;;;;4.00;2.30;;;;;;;14.68;100.00;100508.25;106076;1260;71434;-89
2023/10/29 07:30:07;;;;;;;4.70;2.70;;;;;;;14.75;100.00;100505.48;106321;1254;60534;-89
2023/10/29 07:32:35;;;;;;;4.70;2.70;;;;;;;14.93;100.00;100499.11;106252;1254;60534;-81
2023/10/29 07:35:03;;;;;;;9.10;2.90;;;;;;;15.11;100.00;100504.67;106347;1254;72583;-81
2023/10/29 07:37:31;;;;;;;9.80;3.20;;;;;;;15.21;100.00;100495.72;106389;1254;67178;-81
2023/10/29 07:39:59;;;;;;;4.10;2.30;;;;;;;15.30;100.00;100496.16;106200;1255;72737;-81
2023/10/29 07:42:27;;;;;;;4.10;2.60;;;;;;;15.34;100.00;100499.98;106266;1254;60409;-81
2023/10/29 07:44:54;;;;;;;11.30;6.70;;;;;;;15.39;100.00;100496.13;106153;1254;60518;-81
2023/10/29 07:47:22;;;;;;;5.20;2.50;;;;;;;15.41;100.00;100500.10;106204;1258;72674;-89
2023/10/29 07:49:50;;;;;;;4.30;2.50;;;;;;;15.41;100.00;100500.59;106317;1254;68717;-89
2023/10/29 07:52:17;;;;;;;4.20;3.00;;;;;;;15.39;100.00;100496.28;106445;1256;73462;-91
2023/10/29 07:54:45;;;;;;;4.80;2.60;;;;;;;15.34;100.00;100496.61;106306;1257;60341;-90
2023/10/29 07:57:13;;;;;;;5.00;2.90;;;;;;;15.31;100.00;100501.67;106288;1257;60397;-90
2023/10/29 07:59:41;;;;;;;5.20;2.90;;;;;;;15.35;100.00;100511.58;106323;1254;72583;-90
2023/10/29 08:02:09;;;;;;;4.30;2.50;;;;;;;15.41;100.00;100509.63;106370;1254;68699;-81
2023/10/29 08:04:36;;;;;;;5.50;2.60;;;;;;;15.52;100.00;100509.91;106165;1254;70363;-90
2023/10/29 08:07:04;;;;;;;6.30;2.80;;;;;;;15.64;100.00;100511.08;106148;1258;60407;-88
2023/10/29 08:09:32;;;;;;;5.10;2.30;;;;;;;15.66;100.00;100513.50;106120;1258;60312;-89
2023/10/29 08:12:00;;;;;;;5.30;3.00;;;;;;;15.76;100.00;100518.66;106311;1258;73850;-89
2023/10/29 08:14:28;;;;;;;5.10;2.50;;;;;;;15.82;100.00;100508.63;106213;1254;68994;-91
2023/10/29 08:16:55;;;;;;;3.90;2.10;;;;;;;15.88;100.00;100507.98;106544;1260;71735;-90
2023/10/29 08:19:24;;;;;;;4.80;2.60;;;;;;;15.96;100.00;100509.73;106211;1257;60532;-89
2023/10/29 08:21:51;;;;;;;8.50;3.00;;;;;;;16.06;100.00;100513.42;106399;1258;60338;-90
2023/10/29 08:24:19;;;;;;;2.80;2.10;;;;;;;16.14;100.00;100517.42;106363;1258;72730;-81
2023/10/29 08:26:46;;;;;;;3.70;2.30;;;;;;;16.13;100.00;100522.81;106244;1254;68499;-81
2023/10/29 08:29:14;;;;;;;3.10;2.40;;;;;;;16.09;100.00;100530.19;106024;1255;72678;-82
2023/10/29 08:31:42;;;;;;;3.50;2.70;;;;;;;16.11;100.00;100530.61;106291;1260;60538;-89
2023/10/29 08:34:10;;;;;;;5.20;3.10;;;;;;;16.21;100.00;100533.73;106229;1254;60403;-82
2023/10/29 08:36:38;;;;;;;3.60;2.30;;;;;;;16.24;100.00;100537.73;106183;1259;72563;-81
2023/10/29 08:39:05;;;;;;;4.90;2.50;;;;;;;16.27;100.00;100541.41;106201;1254;68844;-89
2023/10/29 08:41:33;;;;;;;3.60;2.60;;;;;;;16.30;100.00;100548.44;106260;1254;71627;-81
2023/10/29 08:44:02;;;;;;;5.10;2.80;;;;;;;16.22;100.00;100553.94;106274;1260;60503;-81
2023/10/29 08:46:29;;;;;;;4.20;2.90;;;;;;;16.17;100.00;100555.85;106199;1256;60152;-82
2023/10/29 08:48:57;;;;;;;5.70;3.00;;;;;;;16.19;100.00;100560.86;106124;1256;72585;-89
2023/10/29 08:51:25;;;;;;;5.20;3.10;;;;;;;16.28;100.00;100569.00;106194;1259;68375;-82
2023/10/29 08:53:53;;;;;;;7.40;4.00;;;;;;;16.37;100.00;100571.26;106492;1256;72800;-82
2023/10/29 08:56:20;;;;;;;12.80;5.30;;;;;;;16.40;100.00;100573.17;106131;1260;60417;-81
2023/10/29 08:58:48;;;;;;;5.90;3.40;;;;;;;16.43;100.00;100573.33;106248;1258;60455;-82
2023/10/29 09:01:17;;;;;;;9.70;4.40;;;;;;;16.41;100.00;100572.27;106113;1254;72537;-90
2023/10/29 09:03:45;;;;;;;5.40;3.20;;;;;;;16.30;100.00;100572.93;106367;1259;67474;-90
2023/10/29 09:06:12;;;;;;;5.70;3.10;;;;;;;16.32;100.00;100571.48;106480;1256;72665;-90
2023/10/29 09:08:41;;;;;;;4.00;3.00;;;;;;;16.43;100.00;100575.31;106068;1254;60527;-82
2023/10/29 09:11:13;;;;;;;4.80;3.10;;;;;;;16.54;100.00;100565.48;106389;1257;59112;-90
2023/10/29 09:13:41;;;;;;;5.00;3.30;;;;;;;16.66;100.00;100574.52;106470;1254;72551;-89
2023/10/29 09:16:21;;;;;;;4.50;3.20;;;;;;;16.68;100.00;100573.30;106339;1254;67301;-90
2023/10/29 09:19:09;;;;;;;5.00;3.70;;;;;;;16.59;100.00;100567.16;106310;1254;72736;-89
2023/10/29 09:21:37;;;;;;;4.30;3.00;;;;;;;16.47;100.00;100567.80;106589;1253;60414;-90
2023/10/29 09:24:06;;;;;;;4.30;3.30;;;;;;;16.42;100.00;100569.48;106406;1256;60435;-89
2023/10/29 09:26:36;;;;;;;5.50;3.50;;;;;;;16.34;100.00;100565.98;106392;1254;73858;-90
2023/10/29 09:29:03;;;;;;;6.10;3.70;;;;;;;16.23;100.00;100568.60;106399;1254;67451;-90
2023/10/29 09:31:31;;;;;;;5.30;3.30;;;;;;;16.21;100.00;100569.63;106569;1254;72120;-89
2023/10/29 09:34:00;;;;;;;5.10;3.20;;;;;;;16.24;100.00;100564.64;106282;1254;60527;-89
2023/10/29 09:36:28;;;;;;;4.70;3.00;;;;;;;16.25;100.00;100566.31;106429;1256;60338;-89
2023/10/29 09:38:56;;;;;;;4.60;3.30;;;;;;;16.29;100.00;100564.91;106323;1254;73916;-90
2023/10/29 09:41:24;;;;;;;4.40;3.20;;;;;;;16.31;100.00;100561.91;106547;1257;67273;-89
2023/10/29 09:43:52;;;;;;;7.00;3.30;;;;;;;16.43;100.00;100559.95;106509;1254;71203;-90
2023/10/29 09:46:23;;;;;;;4.80;3.20;;;;;;;16.67;100.00;100558.05;106385;1260;60429;-90
2023/10/29 09:48:51;;;;;;;4.70;3.60;;;;;;;16.97;100.00;100562.92;106448;1252;60585;-89
2023/10/29 09:51:20;;;;;;;4.20;3.30;;;;;;;17.14;100.00;100561.84;106627;1254;74320;-89
2023/10/29 09:53:49;;;;;;;3.90;2.10;;;;;;;17.18;100.00;100563.32;106730;1254;67906;-89
2023/10/29 09:56:17;;;;;;;3.00;2.00;;;;;;;17.25;100.00;100564.12;106569;1254;72697;-90
2023/10/29 09:58:45;;;;;;;8.50;3.80;;;;;;;17.36;100.00;100563.45;106429;1254;60548;-89
2023/10/29 10:01:14;;;;;;;3.40;2.00;;;;;;;17.46;100.00;100566.46;106461;1254;60134;-90
2023/10/29 10:03:41;;;;;;;3.00;1.90;;;;;;;17.58;100.00;100571.41;106456;1254;74235;-89
2023/10/29 10:06:10;;;;;;;1.80;1.40;;;;;;;17.55;100.00;100575.80;106408;1254;66829;-90
2023/10/29 10:08:37;;;;;;;3.00;2.10;;;;;;;17.46;100.00;100574.23;106299;1257;71477;-90
2023/10/29 10:11:05;;;;;;;3.70;1.90;;;;;;;17.43;100.00;100579.70;106605;1257;60497;-90
2023/10/29 10:13:41;;;;;;;4.10;1.70;;;;;;;17.40;100.00;100585.17;106111;1260;60439;-81
2023/10/29 10:16:14;;;;;;;2.80;2.10;;;;;;;17.35;100.00;100588.73;106479;1254;74314;-89
2023/10/29 10:18:58;;;;;;;3.10;1.70;;;;;;;17.32;100.00;100589.60;106372;1252;68372;-90
2023/10/29 10:21:43;;;;;;;5.20;2.10;;;;;;;17.27;100.00;100592.06;106450;1257;71402;-90
2023/10/29 10:24:11;;;;;;;2.50;1.50;;;;;;;17.27;100.00;100595.70;106296;1254;60409;-81
2023/10/29 10:32:29;;;;;;;5.00;1.90;;;;;;;16.18;100.00;100609.23;103715;1292;600884;-89
2023/10/29 10:35:00;;;;;;;2.80;1.40;;;;;;;16.69;100.00;100607.88;106124;1272;60130;-83
2023/10/29 10:37:27;;;;;;;2.40;1.80;;;;;;;16.77;100.00;100606.41;105899;1267;60310;-83
2023/10/29 10:39:55;;;;;;;3.10;1.60;;;;;;;16.80;100.00;100607.31;105406;1272;72256;-83
2023/10/29 10:42:25;;;;;;;2.10;1.80;;;;;;;16.88;100.00;100612.09;105681;1271;68442;-91
2023/10/29 10:44:54;;;;;;;22.00;13.60;;;;;;;16.94;100.00;100615.02;105494;1267;72665;-83
2023/10/29 10:47:21;;;;;;;3.20;2.80;;;;;;;16.99;100.00;100616.65;105493;1264;59566;-83
2023/10/29 10:49:49;;;;;;;2.60;2.00;;;;;;;17.06;100.00;100612.33;105553;1264;60181;-83
2023/10/29 10:52:17;;;;;;;3.70;1.90;;;;;;;17.15;100.00;100613.05;105501;1273;71377;-83
2023/10/29 10:54:54;;;;;;;3.80;2.30;;;;;;;17.21;100.00;100612.38;105493;1272;68690;-83
2023/10/29 10:57:22;;;;;;;3.00;2.00;;;;;;;17.23;100.00;100610.31;105723;1264;73069;-90
2023/10/29 10:59:50;;;;;;;3.80;2.10;;;;;;;17.22;100.00;100614.30;105426;1270;59673;-89
2023/10/29 11:02:17;;;;;;;7.70;2.50;;;;;;;17.20;100.00;100613.74;105528;1264;59291;-83
2023/10/29 11:04:46;;;;;;;9.20;3.00;;;;;;;17.15;100.00;100611.45;105712;1264;71955;-92
2023/10/29 11:07:14;;;;;;;4.80;2.30;;;;;;;17.11;100.00;100611.89;105685;1267;68393;-90
2023/10/29 11:09:41;;;;;;;4.70;2.40;;;;;;;17.04;100.00;100606.02;105347;1267;71437;-90
2023/10/29 11:12:09;;;;;;;4.30;2.30;;;;;;;16.97;100.00;100610.31;105628;1267;60181;-90
2023/10/29 11:14:37;;;;;;;6.80;2.90;;;;;;;16.89;100.00;100612.58;105986;1260;59622;-89
2023/10/29 11:17:05;;;;;;;5.60;2.70;;;;;;;16.79;100.00;100614.80;105826;1260;72495;-83
2023/10/29 11:19:33;;;;;;;6.00;3.00;;;;;;;16.68;100.00;100616.30;105586;1267;67113;-89